sensor_id;sensor_type;location;lat;lon;timestamp;pressure;altitude;pressure_sealevel;temperature;humidity
35331;BME280;21441;52.190;20.910;2022-09-27T00:02:18;98902.53;;;11.46;100.00
35331;BME280;21441;52.190;20.910;2022-09-27T00:04:46;98902.53;;;11.20;100.00
35331;BME280;21441;52.190;20.910;2022-09-27T00:07:14;98897.22;;;11.33;100.00
35331;BME280;21441;52.190;20.910;2022-09-27T00:09:41;98895.97;;;11.29;100.00
35331;BME280;21441;52.190;20.910;2022-09-27T00:12:08;98895.53;;;11.39;100.00
35331;BME280;21441;52.190;20.910;2022-09-27T00:14:35;98884.84;;;11.39;100.00
35331;BME280;21441;52.190;20.910;2022-09-27T00:17:02;98883.84;;;11.20;100.00
35331;BME280;21441;52.190;20.910;2022-09-27T00:19:29;98886.16;;;11.16;100.00
35331;BME280;21441;52.190;20.910;2022-09-27T00:21:55;98877.09;;;11.10;100.00
35331;BME280;21441;52.190;20.910;2022-09-27T00:24:24;98874.84;;;11.14;100.00
35331;BME280;21441;52.190;20.910;2022-09-27T00:26:51;98876.91;;;11.19;100.00
35331;BME280;21441;52.190;20.910;2022-09-27T00:29:18;98871.34;;;11.20;100.00
35331;BME280;21441;52.190;20.910;2022-09-27T00:31:45;98875.47;;;11.16;100.00
35331;BME280;21441;52.190;20.910;2022-09-27T00:34:18;98875.47;;;11.23;100.00
35331;BME280;21441;52.190;20.910;2022-09-27T00:36:47;98867.66;;;11.21;100.00
35331;BME280;21441;52.190;20.910;2022-09-27T00:39:16;98866.00;;;11.27;100.00
35331;BME280;21441;52.190;20.910;2022-09-27T00:41:44;98864.31;;;11.39;100.00
35331;BME280;21441;52.190;20.910;2022-09-27T00:47:15;98855.06;;;11.35;100.00
35331;BME280;21441;52.190;20.910;2022-09-27T00:49:49;98854.88;;;11.36;100.00
35331;BME280;21441;52.190;20.910;2022-09-27T00:52:21;98851.41;;;11.36;100.00
35331;BME280;21441;52.190;20.910;2022-09-27T00:54:54;98852.00;;;11.38;100.00
35331;BME280;21441;52.190;20.910;2022-09-27T00:57:24;98851.81;;;11.40;100.00
35331;BME280;21441;52.190;20.910;2022-09-27T00:59:57;98837.88;;;11.31;100.00
35331;BME280;21441;52.190;20.910;2022-09-27T01:02:26;98837.28;;;11.22;100.00
35331;BME280;21441;52.190;20.910;2022-09-27T01:04:53;98831.34;;;11.13;100.00
35331;BME280;21441;52.190;20.910;2022-09-27T01:07:21;98847.31;;;11.33;100.00
35331;BME280;21441;52.190;20.910;2022-09-27T01:09:48;98839.06;;;11.42;100.00
35331;BME280;21441;52.190;20.910;2022-09-27T01:12:19;98843.81;;;11.33;100.00
35331;BME280;21441;52.190;20.910;2022-09-27T01:15:06;98850.53;;;11.49;100.00
35331;BME280;21441;52.190;20.910;2022-09-27T01:17:46;98842.44;;;11.69;100.00
35331;BME280;21441;52.190;20.910;2022-09-27T01:20:31;98846.97;;;11.68;100.00
35331;BME280;21441;52.190;20.910;2022-09-27T01:23:22;98845.97;;;11.63;100.00
35331;BME280;21441;52.190;20.910;2022-09-27T01:26:03;98845.38;;;11.54;100.00
35331;BME280;21441;52.190;20.910;2022-09-27T01:28:50;98847.63;;;11.50;100.00
35331;BME280;21441;52.190;20.910;2022-09-27T01:31:30;98841.91;;;11.47;100.00
35331;BME280;21441;52.190;20.910;2022-09-27T01:34:03;98840.66;;;11.49;100.00
35331;BME280;21441;52.190;20.910;2022-09-27T01:36:40;98842.34;;;11.37;100.00
35331;BME280;21441;52.190;20.910;2022-09-27T01:39:19;98836.81;;;11.32;100.00
35331;BME280;21441;52.190;20.910;2022-09-27T01:41:55;98836.59;;;11.40;100.00
35331;BME280;21441;52.190;20.910;2022-09-27T01:44:28;98837.88;;;11.31;100.00
35331;BME280;21441;52.190;20.910;2022-09-27T01:47:02;98829.47;;;11.21;100.00
35331;BME280;21441;52.190;20.910;2022-09-27T01:49:32;98837.69;;;11.06;100.00
35331;BME280;21441;52.190;20.910;2022-09-27T01:52:03;98835.81;;;11.20;100.00
35331;BME280;21441;52.190;20.910;2022-09-27T01:54:36;98825.72;;;11.28;100.00
35331;BME280;21441;52.190;20.910;2022-09-27T01:57:05;98825.38;;;11.18;100.00
35331;BME280;21441;52.190;20.910;2022-09-27T01:59:36;98825.34;;;11.25;100.00
35331;BME280;21441;52.190;20.910;2022-09-27T02:02:07;98823.28;;;11.27;100.00
35331;BME280;21441;52.190;20.910;2022-09-27T02:04:39;98817.16;;;11.13;100.00
35331;BME280;21441;52.190;20.910;2022-09-27T02:07:10;98821.03;;;11.17;100.00
35331;BME280;21441;52.190;20.910;2022-09-27T02:09:43;98818.16;;;11.19;100.00
35331;BME280;21441;52.190;20.910;2022-09-27T02:12:15;98815.13;;;11.02;100.00
35331;BME280;21441;52.190;20.910;2022-09-27T02:14:48;98814.28;;;11.14;100.00
35331;BME280;21441;52.190;20.910;2022-09-27T02:17:24;98810.59;;;11.15;100.00
35331;BME280;21441;52.190;20.910;2022-09-27T02:20:04;98802.63;;;11.02;100.00
35331;BME280;21441;52.190;20.910;2022-09-27T02:22:34;98811.84;;;11.00;100.00
35331;BME280;21441;52.190;20.910;2022-09-27T02:25:09;98803.00;;;11.12;100.00
35331;BME280;21441;52.190;20.910;2022-09-27T02:27:40;98796.88;;;10.99;100.00
35331;BME280;21441;52.190;20.910;2022-09-27T02:30:13;98793.41;;;10.98;100.00
35331;BME280;21441;52.190;20.910;2022-09-27T02:32:42;98794.22;;;10.99;100.00
35331;BME280;21441;52.190;20.910;2022-09-27T02:35:12;98792.38;;;10.92;100.00
35331;BME280;21441;52.190;20.910;2022-09-27T02:37:41;98805.47;;;11.07;100.00
35331;BME280;21441;52.190;20.910;2022-09-27T02:40:09;98814.06;;;11.23;100.00
35331;BME280;21441;52.190;20.910;2022-09-27T02:42:36;98796.84;;;11.12;100.00
35331;BME280;21441;52.190;20.910;2022-09-27T02:45:05;98795.81;;;11.06;100.00
35331;BME280;21441;52.190;20.910;2022-09-27T02:47:45;98789.88;;;11.11;100.00
35331;BME280;21441;52.190;20.910;2022-09-27T02:50:44;98799.72;;;11.10;100.00
35331;BME280;21441;52.190;20.910;2022-09-27T02:53:28;98793.66;;;11.35;100.00
35331;BME280;21441;52.190;20.910;2022-09-27T02:56:04;98792.66;;;11.36;100.00
35331;BME280;21441;52.190;20.910;2022-09-27T02:58:42;98793.31;;;11.25;100.00
35331;BME280;21441;52.190;20.910;2022-09-27T03:01:20;98787.53;;;11.28;100.00
35331;BME280;21441;52.190;20.910;2022-09-27T03:03:53;98794.13;;;11.25;100.00
35331;BME280;21441;52.190;20.910;2022-09-27T03:06:22;98788.41;;;11.08;100.00
35331;BME280;21441;52.190;20.910;2022-09-27T03:08:49;98789.03;;;11.10;100.00
35331;BME280;21441;52.190;20.910;2022-09-27T03:11:16;98792.78;;;10.96;100.00
35331;BME280;21441;52.190;20.910;2022-09-27T03:13:44;98787.84;;;10.93;100.00
35331;BME280;21441;52.190;20.910;2022-09-27T03:16:10;98790.53;;;10.86;100.00
35331;BME280;21441;52.190;20.910;2022-09-27T03:18:37;98790.34;;;10.81;100.00
35331;BME280;21441;52.190;20.910;2022-09-27T03:21:06;98790.53;;;10.80;100.00
35331;BME280;21441;52.190;20.910;2022-09-27T03:23:33;98790.94;;;10.97;100.00
35331;BME280;21441;52.190;20.910;2022-09-27T03:26:00;98788.28;;;10.90;100.00
35331;BME280;21441;52.190;20.910;2022-09-27T03:28:27;98776.81;;;10.83;100.00
35331;BME280;21441;52.190;20.910;2022-09-27T03:30:54;98779.03;;;10.86;100.00
35331;BME280;21441;52.190;20.910;2022-09-27T03:33:21;98771.22;;;10.91;100.00
35331;BME280;21441;52.190;20.910;2022-09-27T03:35:48;98770.25;;;10.79;100.00
35331;BME280;21441;52.190;20.910;2022-09-27T03:38:17;98764.69;;;10.87;100.00
35331;BME280;21441;52.190;20.910;2022-09-27T03:40:43;98770.63;;;10.82;100.00
35331;BME280;21441;52.190;20.910;2022-09-27T03:43:10;98770.84;;;10.87;100.00
35331;BME280;21441;52.190;20.910;2022-09-27T03:45:37;98762.22;;;10.92;100.00
35331;BME280;21441;52.190;20.910;2022-09-27T03:48:04;98758.69;;;11.05;100.00
35331;BME280;21441;52.190;20.910;2022-09-27T03:50:31;98760.53;;;11.11;100.00
35331;BME280;21441;52.190;20.910;2022-09-27T03:52:58;98759.91;;;11.09;100.00
35331;BME280;21441;52.190;20.910;2022-09-27T03:55:26;98757.66;;;10.99;100.00
35331;BME280;21441;52.190;20.910;2022-09-27T03:57:53;98748.00;;;11.11;100.00
35331;BME280;21441;52.190;20.910;2022-09-27T04:00:32;98750.03;;;11.09;100.00
35331;BME280;21441;52.190;20.910;2022-09-27T04:03:01;98751.50;;;11.05;100.00
35331;BME280;21441;52.190;20.910;2022-09-27T04:05:28;98744.50;;;11.04;100.00
35331;BME280;21441;52.190;20.910;2022-09-27T04:07:56;98740.63;;;11.00;100.00
35331;BME280;21441;52.190;20.910;2022-09-27T04:10:23;98741.84;;;11.04;100.00
35331;BME280;21441;52.190;20.910;2022-09-27T04:12:52;98733.69;;;10.86;100.00
35331;BME280;21441;52.190;20.910;2022-09-27T04:15:18;98729.16;;;10.93;100.00
35331;BME280;21441;52.190;20.910;2022-09-27T04:17:45;98730.56;;;11.02;100.00
35331;BME280;21441;52.190;20.910;2022-09-27T04:20:12;98739.75;;;11.13;100.00
35331;BME280;21441;52.190;20.910;2022-09-27T04:22:40;98736.94;;;11.01;100.00
35331;BME280;21441;52.190;20.910;2022-09-27T04:25:09;98741.22;;;11.09;100.00
35331;BME280;21441;52.190;20.910;2022-09-27T04:27:35;98733.97;;;11.23;100.00
35331;BME280;21441;52.190;20.910;2022-09-27T04:30:05;98739.53;;;11.21;100.00
35331;BME280;21441;52.190;20.910;2022-09-27T04:32:32;98739.41;;;11.03;100.00
35331;BME280;21441;52.190;20.910;2022-09-27T04:34:59;98735.13;;;10.88;100.00
35331;BME280;21441;52.190;20.910;2022-09-27T04:37:43;98739.63;;;10.88;100.00
35331;BME280;21441;52.190;20.910;2022-09-27T04:40:11;98734.50;;;10.86;100.00
35331;BME280;21441;52.190;20.910;2022-09-27T04:42:37;98737.94;;;11.07;100.00
35331;BME280;21441;52.190;20.910;2022-09-27T04:45:06;98740.81;;;11.05;100.00
35331;BME280;21441;52.190;20.910;2022-09-27T04:47:33;98746.19;;;10.99;100.00
35331;BME280;21441;52.190;20.910;2022-09-27T04:50:00;98757.72;;;10.79;100.00
35331;BME280;21441;52.190;20.910;2022-09-27T04:52:28;98750.78;;;10.71;100.00
35331;BME280;21441;52.190;20.910;2022-09-27T04:54:54;98742.53;;;10.73;100.00
35331;BME280;21441;52.190;20.910;2022-09-27T04:57:21;98745.84;;;10.68;100.00
35331;BME280;21441;52.190;20.910;2022-09-27T04:59:48;98744.41;;;10.66;100.00
35331;BME280;21441;52.190;20.910;2022-09-27T05:02:17;98737.22;;;10.60;100.00
35331;BME280;21441;52.190;20.910;2022-09-27T05:04:44;98737.03;;;10.61;100.00
35331;BME280;21441;52.190;20.910;2022-09-27T05:07:11;98741.72;;;10.79;100.00
35331;BME280;21441;52.190;20.910;2022-09-27T05:09:38;98737.00;;;10.81;100.00
35331;BME280;21441;52.190;20.910;2022-09-27T05:12:05;98740.09;;;10.78;100.00
35331;BME280;21441;52.190;20.910;2022-09-27T05:14:33;98743.94;;;10.82;100.00
35331;BME280;21441;52.190;20.910;2022-09-27T05:17:00;98743.59;;;10.72;100.00
35331;BME280;21441;52.190;20.910;2022-09-27T05:19:29;98731.50;;;10.63;100.00
35331;BME280;21441;52.190;20.910;2022-09-27T05:21:56;98730.06;;;10.53;100.00
35331;BME280;21441;52.190;20.910;2022-09-27T05:24:23;98732.09;;;10.51;100.00
35331;BME280;21441;52.190;20.910;2022-09-27T05:26:50;98726.56;;;10.60;100.00
35331;BME280;21441;52.190;20.910;2022-09-27T05:29:17;98729.00;;;10.74;100.00
35331;BME280;21441;52.190;20.910;2022-09-27T05:31:44;98723.09;;;10.52;100.00
35331;BME280;21441;52.190;20.910;2022-09-27T05:34:11;98729.22;;;10.60;100.00
35331;BME280;21441;52.190;20.910;2022-09-27T05:36:40;98721.69;;;10.50;100.00
35331;BME280;21441;52.190;20.910;2022-09-27T05:39:07;98721.44;;;10.51;100.00
35331;BME280;21441;52.190;20.910;2022-09-27T05:41:34;98721.44;;;10.65;100.00
35331;BME280;21441;52.190;20.910;2022-09-27T05:44:01;98727.16;;;10.68;100.00
35331;BME280;21441;52.190;20.910;2022-09-27T05:46:28;98731.22;;;10.84;100.00
35331;BME280;21441;52.190;20.910;2022-09-27T05:48:54;98732.91;;;10.72;100.00
35331;BME280;21441;52.190;20.910;2022-09-27T05:51:21;98738.28;;;10.59;100.00
35331;BME280;21441;52.190;20.910;2022-09-27T05:53:49;98740.53;;;10.55;100.00
35331;BME280;21441;52.190;20.910;2022-09-27T05:56:16;98741.13;;;10.64;100.00
35331;BME280;21441;52.190;20.910;2022-09-27T05:58:44;98733.94;;;10.58;100.00
35331;BME280;21441;52.190;20.910;2022-09-27T06:01:11;98748.31;;;10.57;100.00
35331;BME280;21441;52.190;20.910;2022-09-27T06:03:38;98735.59;;;10.72;100.00
35331;BME280;21441;52.190;20.910;2022-09-27T06:06:06;98737.19;;;10.80;100.00
35331;BME280;21441;52.190;20.910;2022-09-27T06:08:36;98742.56;;;10.66;100.00
35331;BME280;21441;52.190;20.910;2022-09-27T06:11:06;98731.03;;;10.86;100.00
35331;BME280;21441;52.190;20.910;2022-09-27T06:13:35;98731.84;;;10.86;100.00
35331;BME280;21441;52.190;20.910;2022-09-27T06:16:02;98724.03;;;10.91;100.00
35331;BME280;21441;52.190;20.910;2022-09-27T06:18:29;98720.34;;;10.86;100.00
35331;BME280;21441;52.190;20.910;2022-09-27T06:20:57;98730.59;;;10.89;100.00
35331;BME280;21441;52.190;20.910;2022-09-27T06:23:24;98722.81;;;10.87;100.00
35331;BME280;21441;52.190;20.910;2022-09-27T06:25:52;98732.25;;;10.83;100.00
35331;BME280;21441;52.190;20.910;2022-09-27T06:28:21;98726.97;;;10.70;100.00
35331;BME280;21441;52.190;20.910;2022-09-27T06:30:49;98737.00;;;10.81;100.00
35331;BME280;21441;52.190;20.910;2022-09-27T06:33:17;98732.69;;;10.73;100.00
35331;BME280;21441;52.190;20.910;2022-09-27T06:35:45;98726.53;;;10.80;100.00
35331;BME280;21441;52.190;20.910;2022-09-27T06:38:15;98717.88;;;10.84;100.00
35331;BME280;21441;52.190;20.910;2022-09-27T06:40:43;98709.47;;;10.87;100.00
35331;BME280;21441;52.190;20.910;2022-09-27T06:43:13;98715.16;;;10.98;100.00
35331;BME280;21441;52.190;20.910;2022-09-27T06:45:44;98711.88;;;11.09;100.00
35331;BME280;21441;52.190;20.910;2022-09-27T06:48:12;98706.91;;;11.12;100.00
35331;BME280;21441;52.190;20.910;2022-09-27T06:50:41;98711.94;;;10.96;100.00
35331;BME280;21441;52.190;20.910;2022-09-27T06:53:10;98730.81;;;10.87;100.00
35331;BME280;21441;52.190;20.910;2022-09-27T06:55:38;98741.13;;;10.70;100.00
35331;BME280;21441;52.190;20.910;2022-09-27T06:58:06;98734.34;;;10.68;100.00
35331;BME280;21441;52.190;20.910;2022-09-27T07:00:52;98738.25;;;10.72;100.00
35331;BME280;21441;52.190;20.910;2022-09-27T07:03:21;98751.19;;;10.55;100.00
35331;BME280;21441;52.190;20.910;2022-09-27T07:05:54;98746.06;;;10.40;100.00
35331;BME280;21441;52.190;20.910;2022-09-27T07:08:22;98750.78;;;10.38;100.00
35331;BME280;21441;52.190;20.910;2022-09-27T07:10:49;98752.44;;;10.32;100.00
35331;BME280;21441;52.190;20.910;2022-09-27T07:13:16;98748.34;;;10.50;100.00
35331;BME280;21441;52.190;20.910;2022-09-27T07:15:43;98751.19;;;10.55;100.00
35331;BME280;21441;52.190;20.910;2022-09-27T07:18:12;98743.75;;;10.77;100.00
35331;BME280;21441;52.190;20.910;2022-09-27T07:20:39;98747.81;;;10.93;100.00
35331;BME280;21441;52.190;20.910;2022-09-27T07:23:07;98750.75;;;10.85;100.00
35331;BME280;21441;52.190;20.910;2022-09-27T07:25:34;98756.25;;;10.97;100.00
35331;BME280;21441;52.190;20.910;2022-09-27T07:28:02;98751.72;;;10.90;100.00
35331;BME280;21441;52.190;20.910;2022-09-27T07:30:30;98756.47;;;10.88;100.00
35331;BME280;21441;52.190;20.910;2022-09-27T07:32:58;98752.81;;;10.76;100.00
35331;BME280;21441;52.190;20.910;2022-09-27T07:35:27;98753.00;;;10.81;100.00
35331;BME280;21441;52.190;20.910;2022-09-27T07:37:55;98758.31;;;10.88;100.00
35331;BME280;21441;52.190;20.910;2022-09-27T07:40:23;98742.75;;;10.85;100.00
35331;BME280;21441;52.190;20.910;2022-09-27T07:42:53;98744.72;;;11.03;100.00
35331;BME280;21441;52.190;20.910;2022-09-27T07:45:20;98743.25;;;11.13;100.00
35331;BME280;21441;52.190;20.910;2022-09-27T07:47:48;98747.16;;;11.18;100.00
35331;BME280;21441;52.190;20.910;2022-09-27T07:50:16;98722.13;;;11.12;100.00
35331;BME280;21441;52.190;20.910;2022-09-27T07:52:45;98727.88;;;11.09;100.00
35331;BME280;21441;52.190;20.910;2022-09-27T07:55:14;98726.97;;;11.22;100.00
35331;BME280;21441;52.190;20.910;2022-09-27T07:57:41;98743.41;;;11.25;100.00
35331;BME280;21441;52.190;20.910;2022-09-27T08:00:11;98743.53;;;11.44;100.00
35331;BME280;21441;52.190;20.910;2022-09-27T08:02:39;98740.09;;;11.30;100.00
35331;BME280;21441;52.190;20.910;2022-09-27T08:05:07;98735.97;;;11.34;100.00
35331;BME280;21441;52.190;20.910;2022-09-27T08:07:35;98745.00;;;11.40;100.00
35331;BME280;21441;52.190;20.910;2022-09-27T08:10:06;98737.06;;;11.26;100.00
35331;BME280;21441;52.190;20.910;2022-09-27T08:12:35;98743.59;;;11.30;100.00
35331;BME280;21441;52.190;20.910;2022-09-27T08:15:03;98741.72;;;11.38;100.00
35331;BME280;21441;52.190;20.910;2022-09-27T08:17:30;98742.09;;;11.41;100.00
35331;BME280;21441;52.190;20.910;2022-09-27T08:19:58;98748.03;;;11.43;100.00
35331;BME280;21441;52.190;20.910;2022-09-27T08:22:28;98750.72;;;11.43;100.00
35331;BME280;21441;52.190;20.910;2022-09-27T08:24:55;98755.34;;;11.16;100.00
35331;BME280;21441;52.190;20.910;2022-09-27T08:27:24;98754.94;;;11.19;100.00
35331;BME280;21441;52.190;20.910;2022-09-27T08:29:51;98761.09;;;11.26;100.00
35331;BME280;21441;52.190;20.910;2022-09-27T08:32:18;98759.22;;;11.27;100.00
35331;BME280;21441;52.190;20.910;2022-09-27T08:34:44;98752.97;;;11.46;100.00
35331;BME280;21441;52.190;20.910;2022-09-27T08:37:11;98758.41;;;11.26;100.00
35331;BME280;21441;52.190;20.910;2022-09-27T08:39:38;98748.00;;;11.50;100.00
35331;BME280;21441;52.190;20.910;2022-09-27T08:42:15;98762.91;;;11.71;100.00
35331;BME280;21441;52.190;20.910;2022-09-27T08:44:59;98756.69;;;11.84;100.00
35331;BME280;21441;52.190;20.910;2022-09-27T08:47:32;98768.31;;;11.96;100.00
35331;BME280;21441;52.190;20.910;2022-09-27T08:50:03;98765.75;;;12.14;100.00
35331;BME280;21441;52.190;20.910;2022-09-27T08:52:39;98762.13;;;12.02;100.00
35331;BME280;21441;52.190;20.910;2022-09-27T08:55:17;98761.53;;;12.00;100.00
35331;BME280;21441;52.190;20.910;2022-09-27T08:57:49;98768.06;;;12.04;100.00
35331;BME280;21441;52.190;20.910;2022-09-27T09:00:20;98772.69;;;11.90;100.00
35331;BME280;21441;52.190;20.910;2022-09-27T09:02:48;98763.78;;;11.96;100.00
35331;BME280;21441;52.190;20.910;2022-09-27T09:05:21;98752.69;;;12.00;100.00
35331;BME280;21441;52.190;20.910;2022-09-27T09:08:03;98755.09;;;12.33;100.00
35331;BME280;21441;52.190;20.910;2022-09-27T09:10:42;98753.69;;;12.30;100.00
35331;BME280;21441;52.190;20.910;2022-09-27T09:13:46;98751.28;;;12.47;100.00
35331;BME280;21441;52.190;20.910;2022-09-27T09:16:28;98745.63;;;12.55;100.00
35331;BME280;21441;52.190;20.910;2022-09-27T09:19:09;98743.34;;;12.59;100.00
35331;BME280;21441;52.190;20.910;2022-09-27T09:21:47;98747.31;;;12.75;100.00
35331;BME280;21441;52.190;20.910;2022-09-27T09:24:32;98736.47;;;12.70;100.00
35331;BME280;21441;52.190;20.910;2022-09-27T09:27:10;98732.38;;;12.67;100.00
35331;BME280;21441;52.190;20.910;2022-09-27T09:30:04;98720.41;;;12.70;100.00
35331;BME280;21441;52.190;20.910;2022-09-27T09:32:49;98736.75;;;12.62;100.00
35331;BME280;21441;52.190;20.910;2022-09-27T09:35:24;98733.03;;;12.81;100.00
35331;BME280;21441;52.190;20.910;2022-09-27T09:37:54;98730.72;;;12.66;100.00
35331;BME280;21441;52.190;20.910;2022-09-27T09:40:25;98734.75;;;12.75;100.00
35331;BME280;21441;52.190;20.910;2022-09-27T09:42:59;98737.00;;;12.53;100.00
35331;BME280;21441;52.190;20.910;2022-09-27T09:45:29;98735.66;;;12.44;100.00
35331;BME280;21441;52.190;20.910;2022-09-27T09:48:01;98719.81;;;12.68;100.00
35331;BME280;21441;52.190;20.910;2022-09-27T09:50:35;98734.50;;;12.58;100.00
35331;BME280;21441;52.190;20.910;2022-09-27T09:53:12;98735.78;;;12.31;100.00
35331;BME280;21441;52.190;20.910;2022-09-27T09:55:42;98736.06;;;12.23;100.00
35331;BME280;21441;52.190;20.910;2022-09-27T09:58:13;98732.28;;;12.05;100.00
35331;BME280;21441;52.190;20.910;2022-09-27T10:00:46;98739.44;;;12.11;100.00
35331;BME280;21441;52.190;20.910;2022-09-27T10:03:14;98731.34;;;12.18;100.00
35331;BME280;21441;52.190;20.910;2022-09-27T10:05:43;98726.94;;;12.30;100.00
35331;BME280;21441;52.190;20.910;2022-09-27T10:08:15;98718.28;;;12.53;100.00
35331;BME280;21441;52.190;20.910;2022-09-27T10:10:43;98708.66;;;12.52;100.00
35331;BME280;21441;52.190;20.910;2022-09-27T10:13:14;98709.66;;;12.51;100.00
35331;BME280;21441;52.190;20.910;2022-09-27T10:15:45;98704.03;;;12.59;100.00
35331;BME280;21441;52.190;20.910;2022-09-27T10:18:17;98712.00;;;12.66;100.00
35331;BME280;21441;52.190;20.910;2022-09-27T10:20:48;98707.84;;;12.70;100.00
35331;BME280;21441;52.190;20.910;2022-09-27T10:23:20;98689.56;;;12.86;100.00
35331;BME280;21441;52.190;20.910;2022-09-27T10:25:52;98706.81;;;12.90;100.00
35331;BME280;21441;52.190;20.910;2022-09-27T10:28:31;98711.78;;;12.68;100.00
35331;BME280;21441;52.190;20.910;2022-09-27T10:31:02;98703.53;;;12.69;100.00
35331;BME280;21441;52.190;20.910;2022-09-27T10:33:31;98708.28;;;12.67;100.00
35331;BME280;21441;52.190;20.910;2022-09-27T10:35:59;98704.56;;;12.50;100.00
35331;BME280;21441;52.190;20.910;2022-09-27T10:38:29;98706.34;;;12.56;100.00
35331;BME280;21441;52.190;20.910;2022-09-27T10:40:58;98711.56;;;12.69;100.00
35331;BME280;21441;52.190;20.910;2022-09-27T10:43:41;98708.56;;;12.41;100.00
35331;BME280;21441;52.190;20.910;2022-09-27T10:46:13;98702.63;;;12.38;100.00
35331;BME280;21441;52.190;20.910;2022-09-27T10:48:43;98699.53;;;12.16;100.00
35331;BME280;21441;52.190;20.910;2022-09-27T10:51:25;98691.31;;;12.36;100.00
35331;BME280;21441;52.190;20.910;2022-09-27T10:53:55;98688.00;;;12.59;100.00
35331;BME280;21441;52.190;20.910;2022-09-27T10:56:28;98688.59;;;12.80;100.00
35331;BME280;21441;52.190;20.910;2022-09-27T10:58:56;98681.84;;;12.96;100.00
35331;BME280;21441;52.190;20.910;2022-09-27T11:01:25;98686.84;;;13.04;100.00
35331;BME280;21441;52.190;20.910;2022-09-27T11:03:55;98684.19;;;13.04;100.00
35331;BME280;21441;52.190;20.910;2022-09-27T11:06:29;98674.34;;;13.16;100.00
35331;BME280;21441;52.190;20.910;2022-09-27T11:09:15;98671.53;;;13.30;100.00
35331;BME280;21441;52.190;20.910;2022-09-27T11:11:44;98668.28;;;13.09;100.00
35331;BME280;21441;52.190;20.910;2022-09-27T11:14:18;98663.22;;;13.19;100.00
35331;BME280;21441;52.190;20.910;2022-09-27T11:17:06;98658.38;;;13.10;100.00
35331;BME280;21441;52.190;20.910;2022-09-27T11:19:43;98672.50;;;13.17;100.00
35331;BME280;21441;52.190;20.910;2022-09-27T11:22:23;98665.94;;;13.13;100.00
35331;BME280;21441;52.190;20.910;2022-09-27T11:25:01;98654.94;;;13.21;100.00
35331;BME280;21441;52.190;20.910;2022-09-27T11:27:42;98653.19;;;13.45;100.00
35331;BME280;21441;52.190;20.910;2022-09-27T11:30:14;98660.94;;;13.65;100.00
35331;BME280;21441;52.190;20.910;2022-09-27T11:32:54;98649.22;;;14.01;100.00
35331;BME280;21441;52.190;20.910;2022-09-27T11:35:43;98636.28;;;14.22;100.00
35331;BME280;21441;52.190;20.910;2022-09-27T11:38:17;98645.31;;;15.20;100.00
35331;BME280;21441;52.190;20.910;2022-09-27T11:41:09;98644.16;;;16.46;100.00
35331;BME280;21441;52.190;20.910;2022-09-27T11:43:55;98645.13;;;16.18;100.00
35331;BME280;21441;52.190;20.910;2022-09-27T11:46:28;98638.09;;;16.17;100.00
35331;BME280;21441;52.190;20.910;2022-09-27T11:49:19;98634.63;;;15.54;100.00
35331;BME280;21441;52.190;20.910;2022-09-27T11:52:01;98634.94;;;14.83;100.00
35331;BME280;21441;52.190;20.910;2022-09-27T11:54:45;98633.47;;;14.64;100.00
35331;BME280;21441;52.190;20.910;2022-09-27T11:57:20;98640.53;;;14.94;100.00
35331;BME280;21441;52.190;20.910;2022-09-27T12:02:55;98619.88;;;17.89;88.98
35331;BME280;21441;52.190;20.910;2022-09-27T12:05:35;98635.81;;;16.26;99.15
35331;BME280;21441;52.190;20.910;2022-09-27T12:08:17;98629.16;;;15.78;100.00
35331;BME280;21441;52.190;20.910;2022-09-27T12:10:52;98630.03;;;16.56;100.00
35331;BME280;21441;52.190;20.910;2022-09-27T12:13:27;98629.69;;;16.30;100.00
35331;BME280;21441;52.190;20.910;2022-09-27T12:15:57;98625.72;;;16.16;100.00
35331;BME280;21441;52.190;20.910;2022-09-27T12:18:27;98608.91;;;19.16;84.91
35331;BME280;21441;52.190;20.910;2022-09-27T12:20:58;98610.16;;;18.25;78.59
35331;BME280;21441;52.190;20.910;2022-09-27T12:23:37;98612.53;;;16.98;88.69
35331;BME280;21441;52.190;20.910;2022-09-27T12:26:09;98610.41;;;16.56;92.64
35331;BME280;21441;52.190;20.910;2022-09-27T12:28:43;98604.19;;;16.55;91.13
35331;BME280;21441;52.190;20.910;2022-09-27T12:31:16;98600.59;;;17.43;84.57
35331;BME280;21441;52.190;20.910;2022-09-27T12:33:50;98597.09;;;19.58;70.87
35331;BME280;21441;52.190;20.910;2022-09-27T12:36:22;98565.63;;;22.08;55.76
35331;BME280;21441;52.190;20.910;2022-09-27T12:38:57;98575.69;;;19.06;65.94
35331;BME280;21441;52.190;20.910;2022-09-27T12:41:29;98577.13;;;18.61;70.84
35331;BME280;21441;52.190;20.910;2022-09-27T12:43:58;98575.69;;;17.63;74.87
35331;BME280;21441;52.190;20.910;2022-09-27T12:46:34;98586.56;;;17.41;76.93
35331;BME280;21441;52.190;20.910;2022-09-27T12:49:05;98583.97;;;18.79;69.89
35331;BME280;21441;52.190;20.910;2022-09-27T12:51:39;98585.84;;;18.20;70.31
35331;BME280;21441;52.190;20.910;2022-09-27T12:54:30;98586.84;;;17.44;74.69
35331;BME280;21441;52.190;20.910;2022-09-27T12:57:09;98588.09;;;17.64;75.86
35331;BME280;21441;52.190;20.910;2022-09-27T12:59:53;98579.50;;;17.35;78.61
35331;BME280;21441;52.190;20.910;2022-09-27T13:02:36;98574.97;;;17.40;79.00
35331;BME280;21441;52.190;20.910;2022-09-27T13:05:46;98564.69;;;17.69;76.13
35331;BME280;21441;52.190;20.910;2022-09-27T13:08:30;98563.88;;;18.59;68.53
35331;BME280;21441;52.190;20.910;2022-09-27T13:11:11;98569.22;;;17.59;74.76